createdAt,value
2018-03-04T00:00:12.914Z,57.40
2018-03-04T00:02:39.110Z,57.20
2018-03-04T00:05:05.338Z,57.10
2018-03-04T00:07:31.567Z,56.80
2018-03-04T00:09:57.795Z,57.10
2018-03-04T00:12:24.019Z,57.10
2018-03-04T00:14:50.205Z,57.40
2018-03-04T00:17:16.465Z,57.90
2018-03-04T00:19:42.707Z,57.10
2018-03-04T00:22:08.928Z,57.50
2018-03-04T00:24:35.115Z,57.10
2018-03-04T00:27:01.359Z,57.20
2018-03-04T00:29:27.570Z,58.20
2018-03-04T00:31:53.809Z,57.10
2018-03-04T00:34:20.033Z,56.70
2018-03-04T00:36:46.443Z,57.00
2018-03-04T00:39:13.384Z,56.70
2018-03-04T00:41:40.405Z,56.50
2018-03-04T00:44:06.604Z,56.50
2018-03-04T00:46:32.789Z,56.80
2018-03-04T00:48:59.733Z,57.50
2018-03-04T00:51:26.658Z,57.80
2018-03-04T00:53:52.939Z,57.70
2018-03-04T00:56:19.198Z,57.10
2018-03-04T00:58:45.702Z,57.20
2018-03-04T01:01:11.916Z,57.50
2018-03-04T01:03:38.132Z,57.40
2018-03-04T01:06:05.112Z,57.70
2018-03-04T01:08:31.322Z,57.60
2018-03-04T01:10:57.560Z,57.70
2018-03-04T01:13:23.799Z,58.10
2018-03-04T01:15:50.048Z,57.80
2018-03-04T01:18:16.273Z,57.50
2018-03-04T01:20:42.475Z,58.00
2018-03-04T01:23:08.735Z,58.20
2018-03-04T01:25:34.948Z,57.50
2018-03-04T01:28:01.259Z,57.80
2018-03-04T01:30:27.447Z,57.30
2018-03-04T01:32:53.641Z,58.40
2018-03-04T01:35:19.865Z,57.70
2018-03-04T01:37:46.278Z,57.30
2018-03-04T01:40:12.506Z,57.50
2018-03-04T01:42:38.738Z,57.40
2018-03-04T01:45:04.948Z,57.70
2018-03-04T01:47:31.879Z,58.30
2018-03-04T01:49:58.836Z,58.20
2018-03-04T01:52:25.833Z,58.50
2018-03-04T01:54:52.039Z,58.40
2018-03-04T01:57:18.243Z,57.90
2018-03-04T01:59:45.174Z,58.10
2018-03-04T02:02:12.152Z,57.50
2018-03-04T02:04:38.357Z,57.50
2018-03-04T02:07:05.293Z,58.00
2018-03-04T02:09:32.453Z,58.70
2018-03-04T02:11:59.413Z,58.60
2018-03-04T02:14:25.616Z,58.60
2018-03-04T02:16:52.605Z,59.30
2018-03-04T02:19:18.859Z,59.30
2018-03-04T02:21:45.086Z,58.40
2018-03-04T02:24:12.024Z,58.30
2018-03-04T02:26:38.257Z,58.30
2018-03-04T02:29:04.486Z,58.90
2018-03-04T02:31:30.669Z,59.00
2018-03-04T02:33:57.623Z,58.80
2018-03-04T02:36:23.824Z,58.80
2018-03-04T02:38:50.803Z,60.00
2018-03-04T02:41:17.007Z,59.40
2018-03-04T02:43:43.953Z,59.10
2018-03-04T02:46:10.900Z,58.90
2018-03-04T02:48:37.856Z,59.00
2018-03-04T02:51:04.123Z,59.00
2018-03-04T02:53:30.371Z,58.30
2018-03-04T02:55:56.670Z,58.90
2018-03-04T02:58:22.862Z,59.70
2018-03-04T03:00:49.944Z,58.90
2018-03-04T03:03:16.153Z,58.90
2018-03-04T03:05:43.099Z,58.90
2018-03-04T03:08:09.291Z,58.90
2018-03-04T03:10:35.521Z,59.40
2018-03-04T03:13:01.756Z,59.10
2018-03-04T03:15:27.994Z,58.90
2018-03-04T03:17:54.954Z,59.30
2018-03-04T03:20:21.902Z,59.90
2018-03-04T03:22:48.853Z,58.70
2018-03-04T03:25:15.802Z,59.50
2018-03-04T03:27:42.060Z,59.50
2018-03-04T03:30:08.253Z,58.90
2018-03-04T03:32:34.474Z,58.30
2018-03-04T03:35:01.441Z,58.80
2018-03-04T03:37:27.684Z,58.70
2018-03-04T03:39:53.915Z,60.00
2018-03-04T03:42:20.130Z,59.50
2018-03-04T03:44:46.544Z,58.70
2018-03-04T03:47:13.551Z,59.70
2018-03-04T03:49:39.778Z,59.70
2018-03-04T03:52:06.005Z,59.70
2018-03-04T03:54:32.240Z,59.70
2018-03-04T03:56:58.446Z,58.70
2018-03-04T03:59:24.773Z,59.30
2018-03-04T04:01:51.009Z,59.70
2018-03-04T04:04:17.244Z,59.00
2018-03-04T04:06:43.479Z,59.50
2018-03-04T04:09:09.762Z,58.70
2018-03-04T04:11:35.983Z,59.00
2018-03-04T04:14:02.956Z,59.70
2018-03-04T04:16:29.165Z,59.70
2018-03-04T04:18:55.462Z,59.20
2018-03-04T04:21:21.658Z,59.30
2018-03-04T04:23:47.872Z,59.70
2018-03-04T04:26:14.189Z,59.50
2018-03-04T04:28:40.409Z,59.60
2018-03-04T04:31:06.656Z,59.60
2018-03-04T04:33:32.850Z,59.60
2018-03-04T04:35:59.785Z,60.20
2018-03-04T04:38:26.005Z,59.60
2018-03-04T04:40:52.226Z,59.60
2018-03-04T04:43:18.463Z,59.60
2018-03-04T04:45:44.680Z,59.90
2018-03-04T04:48:10.913Z,60.00
2018-03-04T04:50:37.137Z,59.60
2018-03-04T04:53:03.395Z,60.00
2018-03-04T04:55:30.349Z,61.00
2018-03-04T04:57:57.302Z,59.60
2018-03-04T05:00:24.281Z,59.90
2018-03-04T05:02:50.500Z,59.90
2018-03-04T05:05:16.749Z,60.00
2018-03-04T05:07:42.984Z,60.60
2018-03-04T05:10:09.193Z,61.20
2018-03-04T05:12:35.393Z,60.00
2018-03-04T05:15:02.346Z,60.30
2018-03-04T05:17:28.559Z,61.00
2018-03-04T05:19:55.595Z,60.40
2018-03-04T05:22:21.833Z,60.30
2018-03-04T05:24:48.775Z,60.90
2018-03-04T05:27:14.981Z,60.80
2018-03-04T05:29:41.380Z,60.80
2018-03-04T05:32:07.612Z,59.60
2018-03-04T05:34:34.629Z,59.80
2018-03-04T05:37:01.107Z,59.80
2018-03-04T05:39:27.362Z,60.50
2018-03-04T05:41:53.577Z,60.50
2018-03-04T05:44:19.750Z,60.30
2018-03-04T05:46:46.078Z,60.30
2018-03-04T05:49:13.082Z,59.90
2018-03-04T05:51:39.300Z,59.90
2018-03-04T05:54:05.531Z,59.70
2018-03-04T05:56:31.760Z,59.30
2018-03-04T05:58:57.992Z,59.70
2018-03-04T06:01:25.155Z,59.70
2018-03-04T06:03:51.374Z,59.70
2018-03-04T06:06:17.621Z,59.50
2018-03-04T06:08:43.858Z,59.80
2018-03-04T06:11:10.076Z,59.80
2018-03-04T06:13:36.300Z,59.80
2018-03-04T06:16:02.584Z,60.00
2018-03-04T06:18:28.823Z,59.90
2018-03-04T06:20:55.034Z,60.00
2018-03-04T06:23:21.230Z,60.00
2018-03-04T06:25:47.452Z,60.10
2018-03-04T06:28:13.678Z,60.30
2018-03-04T06:30:39.954Z,60.00
2018-03-04T06:33:06.181Z,60.20
2018-03-04T06:35:32.425Z,60.10
2018-03-04T06:37:58.682Z,60.00
2018-03-04T06:40:24.900Z,60.10
2018-03-04T06:42:51.110Z,60.00
2018-03-04T06:45:17.356Z,60.20
2018-03-04T06:47:43.593Z,60.10
2018-03-04T06:50:09.795Z,60.20
2018-03-04T06:52:36.049Z,60.50
2018-03-04T06:55:02.357Z,60.80
2018-03-04T06:57:28.604Z,60.90
2018-03-04T06:59:54.811Z,60.70
2018-03-04T07:02:21.759Z,61.00
2018-03-04T07:04:47.968Z,61.00
2018-03-04T07:07:14.928Z,60.50
2018-03-04T07:09:41.913Z,61.20
2018-03-04T07:12:08.117Z,61.20
2018-03-04T07:14:34.297Z,60.60
2018-03-04T07:17:00.503Z,61.00
2018-03-04T07:19:26.686Z,61.30
2018-03-04T07:21:53.661Z,61.00
2018-03-04T07:24:19.889Z,60.90
2018-03-04T07:26:46.529Z,61.40
2018-03-04T07:29:12.736Z,61.50
2018-03-04T07:31:39.398Z,61.30
2018-03-04T07:34:05.612Z,61.20
2018-03-04T07:36:31.871Z,61.30
2018-03-04T07:38:58.854Z,61.50
2018-03-04T07:41:25.945Z,61.60
2018-03-04T07:43:52.270Z,61.40
2018-03-04T07:46:18.649Z,61.70
2018-03-04T07:48:44.848Z,61.90
2018-03-04T07:51:11.142Z,62.20
2018-03-04T07:53:37.348Z,61.90
2018-03-04T07:56:04.386Z,61.70
2018-03-04T07:58:30.596Z,61.60
2018-03-04T08:00:57.770Z,61.50
2018-03-04T08:03:24.857Z,61.30
2018-03-04T08:05:51.081Z,61.20
2018-03-04T08:08:17.369Z,61.20
2018-03-04T08:10:43.671Z,61.40
2018-03-04T08:13:10.013Z,60.40
2018-03-04T08:15:36.239Z,60.90
2018-03-04T08:18:02.544Z,60.30
2018-03-04T08:20:28.761Z,60.70
2018-03-04T08:22:55.114Z,60.70
2018-03-04T08:25:31.372Z,60.40
2018-03-04T08:28:09.930Z,60.60
2018-03-04T08:30:36.130Z,60.40
2018-03-04T08:33:02.329Z,60.40
2018-03-04T08:35:28.654Z,60.60
2018-03-04T08:37:55.613Z,60.40
2018-03-04T08:40:22.022Z,60.40
2018-03-04T08:42:49.005Z,60.10
2018-03-04T08:45:15.269Z,60.00
2018-03-04T08:47:41.524Z,60.40
2018-03-04T08:50:08.497Z,60.90
2018-03-04T08:52:34.740Z,60.20
2018-03-04T08:55:00.998Z,60.20
2018-03-04T08:57:27.251Z,60.00
2018-03-04T08:59:53.512Z,59.90
2018-03-04T09:02:19.799Z,59.90
2018-03-04T09:04:46.206Z,59.60
2018-03-04T09:07:12.436Z,59.40
2018-03-04T09:09:38.775Z,59.40
2018-03-04T09:12:04.971Z,59.40
2018-03-04T09:14:31.220Z,58.90
2018-03-04T09:16:57.452Z,58.90
2018-03-04T09:19:23.775Z,59.00
2018-03-04T09:21:49.992Z,59.30
2018-03-04T09:24:16.338Z,59.20
2018-03-04T09:26:42.566Z,59.50
2018-03-04T09:29:08.934Z,59.50
2018-03-04T09:31:35.178Z,59.60
2018-03-04T09:34:02.124Z,59.60
2018-03-04T09:36:29.130Z,59.70
2018-03-04T09:38:55.343Z,59.70
2018-03-04T09:41:21.561Z,59.50
2018-03-04T09:43:47.785Z,59.20
2018-03-04T09:46:13.982Z,59.70
2018-03-04T09:48:41.504Z,59.50
2018-03-04T09:51:07.732Z,59.30
2018-03-04T09:53:34.133Z,59.10
2018-03-04T09:56:00.382Z,59.60
2018-03-04T09:58:26.718Z,59.40
2018-03-04T10:00:52.985Z,59.50
2018-03-04T10:03:20.087Z,58.90
2018-03-04T10:05:46.572Z,59.30
2018-03-04T10:08:12.786Z,59.50
2018-03-04T10:10:39.293Z,59.70
2018-03-04T10:13:05.955Z,59.80
2018-03-04T10:15:32.196Z,59.70
2018-03-04T10:17:58.464Z,59.70
2018-03-04T10:20:24.782Z,59.60
2018-03-04T10:22:51.016Z,59.80
2018-03-04T10:25:18.381Z,59.80
2018-03-04T10:27:44.713Z,59.80
2018-03-04T10:30:10.929Z,59.70
2018-03-04T10:32:38.024Z,60.00
2018-03-04T10:35:04.272Z,60.00
2018-03-04T10:37:30.500Z,59.90
2018-03-04T10:39:56.847Z,59.90
2018-03-04T10:42:23.107Z,59.90
2018-03-04T10:44:50.063Z,59.50
2018-03-04T10:47:16.335Z,59.40
2018-03-04T10:49:42.537Z,59.60
2018-03-04T10:52:08.859Z,59.80
2018-03-04T10:54:35.210Z,59.70
2018-03-04T10:57:01.438Z,59.60
2018-03-04T10:59:27.718Z,59.50
2018-03-04T11:01:53.956Z,59.40
2018-03-04T11:04:21.132Z,59.40
2018-03-04T11:06:47.378Z,59.40
2018-03-04T11:09:13.636Z,59.40
2018-03-04T11:11:39.855Z,59.50
2018-03-04T11:14:06.902Z,59.20
2018-03-04T11:16:33.131Z,59.20
2018-03-04T11:18:59.633Z,59.20
2018-03-04T11:21:25.842Z,59.20
2018-03-04T11:23:52.049Z,59.10
2018-03-04T11:26:18.254Z,59.60
2018-03-04T11:28:44.609Z,59.40
2018-03-04T11:31:10.745Z,59.40
2018-03-04T11:33:37.714Z,59.40
2018-03-04T11:36:04.000Z,59.40
2018-03-04T11:38:30.222Z,59.20
2018-03-04T11:40:56.590Z,59.00
2018-03-04T11:43:23.574Z,58.60
2018-03-04T11:45:49.880Z,58.50
2018-03-04T11:48:16.121Z,58.90
2018-03-04T11:57:19.027Z,58.50
2018-03-04T11:59:45.967Z,58.60
2018-03-04T12:02:12.330Z,58.70
2018-03-04T12:04:38.557Z,58.80
2018-03-04T12:07:04.760Z,58.90
2018-03-04T12:09:31.047Z,58.80
2018-03-04T12:11:58.145Z,59.40
2018-03-04T12:14:24.457Z,58.70
2018-03-04T12:16:50.672Z,58.50
2018-03-04T12:19:16.992Z,59.00
2018-03-04T12:21:43.264Z,58.40
2018-03-04T12:24:09.455Z,58.50
2018-03-04T12:26:35.680Z,58.90
2018-03-04T12:29:01.890Z,58.60
2018-03-04T12:31:28.840Z,58.90
2018-03-04T12:33:55.843Z,59.00
2018-03-04T12:36:22.552Z,59.00
2018-03-04T12:38:48.888Z,59.00
2018-03-04T12:41:15.120Z,59.10
2018-03-04T12:43:41.334Z,58.90
2018-03-04T12:46:07.527Z,59.10
2018-03-04T12:48:34.006Z,59.00
2018-03-04T12:51:00.206Z,59.10
2018-03-04T12:53:27.146Z,59.20
2018-03-04T12:55:54.896Z,58.90
2018-03-04T12:58:21.906Z,59.30
2018-03-04T13:00:48.176Z,59.20
2018-03-04T13:03:14.396Z,59.20
2018-03-04T13:05:40.933Z,59.20
2018-03-04T13:08:07.163Z,59.10
2018-03-04T13:10:33.418Z,59.10
2018-03-04T13:13:00.385Z,59.10
2018-03-04T13:15:26.609Z,59.10
2018-03-04T13:17:55.079Z,58.90
2018-03-04T13:20:21.402Z,58.80
2018-03-04T13:22:48.373Z,59.00
2018-03-04T13:25:14.559Z,59.00
2018-03-04T13:27:40.816Z,59.00
2018-03-04T13:30:07.797Z,59.10
2018-03-04T13:32:34.110Z,59.10
2018-03-04T13:35:00.516Z,58.90
2018-03-04T13:37:27.500Z,59.00
2018-03-04T13:39:53.796Z,59.00
2018-03-04T13:42:20.965Z,59.20
2018-03-04T13:44:47.270Z,59.20
2018-03-04T13:47:14.382Z,58.70
2018-03-04T13:49:40.660Z,58.60
2018-03-04T13:52:07.783Z,58.80
2018-03-04T13:54:33.987Z,58.80
2018-03-04T13:57:00.616Z,58.80
2018-03-04T13:59:26.841Z,59.00
2018-03-04T14:01:53.164Z,59.20
2018-03-04T14:04:19.398Z,58.50
2018-03-04T14:06:45.785Z,59.30
2018-03-04T14:09:12.735Z,60.00
2018-03-04T14:11:39.723Z,59.80
2018-03-04T14:14:05.935Z,59.70
2018-03-04T14:16:32.244Z,59.00
2018-03-04T14:18:58.520Z,59.20
2018-03-04T14:21:24.756Z,59.60
2018-03-04T14:23:51.030Z,59.00
2018-03-04T14:26:17.958Z,57.80
2018-03-04T14:28:44.333Z,57.70
2018-03-04T14:31:10.561Z,59.20
2018-03-04T14:33:36.826Z,58.60
2018-03-04T14:36:03.106Z,59.40
2018-03-04T14:38:29.389Z,59.50
2018-03-04T14:40:55.769Z,58.70
2018-03-04T14:43:22.829Z,58.10
2018-03-04T14:45:49.198Z,58.10
2018-03-04T14:48:15.430Z,58.20
2018-03-04T14:50:41.713Z,58.10
2018-03-04T14:53:08.679Z,58.50
2018-03-04T14:55:34.919Z,58.60
2018-03-04T14:58:01.261Z,58.00
2018-03-04T15:00:27.503Z,58.00
2018-03-04T15:02:53.737Z,58.60
2018-03-04T15:05:19.941Z,58.00
2018-03-04T15:07:46.535Z,59.00
2018-03-04T15:10:12.905Z,57.90
2018-03-04T15:12:39.103Z,59.30
2018-03-04T15:15:06.061Z,57.90
2018-03-04T15:17:32.406Z,57.90
2018-03-04T15:19:58.645Z,58.90
2018-03-04T15:22:24.890Z,58.80
2018-03-04T15:24:51.836Z,59.30
2018-03-04T15:27:18.132Z,59.30
2018-03-04T15:29:44.333Z,59.00
2018-03-04T15:32:11.294Z,60.00
2018-03-04T15:34:38.293Z,59.70
2018-03-04T15:37:04.487Z,59.60
2018-03-04T15:39:30.723Z,59.80
2018-03-04T15:41:57.071Z,60.20
2018-03-04T15:44:23.299Z,59.20
2018-03-04T15:46:49.540Z,58.90
2018-03-04T15:49:15.787Z,59.20
2018-03-04T15:51:42.039Z,58.80
2018-03-04T15:54:08.984Z,59.00
2018-03-04T15:56:37.383Z,58.70
2018-03-04T15:59:03.578Z,58.80
2018-03-04T16:01:29.892Z,59.00
2018-03-04T16:03:56.221Z,59.00
2018-03-04T16:06:22.694Z,59.10
2018-03-04T16:08:48.930Z,59.90
2018-03-04T16:11:15.136Z,60.10
2018-03-04T16:13:42.108Z,59.80
2018-03-04T16:16:08.348Z,59.70
2018-03-04T16:18:34.617Z,59.40
2018-03-04T16:21:00.854Z,59.00
2018-03-04T16:23:27.423Z,59.20
2018-03-04T16:25:54.496Z,59.40
2018-03-04T16:28:20.823Z,59.40
2018-03-04T16:30:47.606Z,59.60
2018-03-04T16:33:13.865Z,59.80
2018-03-04T16:35:40.086Z,60.40
2018-03-04T16:38:06.297Z,59.80
2018-03-04T16:40:32.589Z,59.40
2018-03-04T16:42:58.968Z,59.50
2018-03-04T16:45:25.206Z,59.80
2018-03-04T16:47:51.527Z,59.70
2018-03-04T16:50:17.767Z,59.70
2018-03-04T16:52:44.078Z,59.90
2018-03-04T16:55:10.315Z,59.90
2018-03-04T16:57:36.517Z,59.70
2018-03-04T17:00:02.889Z,59.70
2018-03-04T17:02:29.565Z,59.50
2018-03-04T17:04:55.889Z,60.00
2018-03-04T17:07:22.133Z,60.10
2018-03-04T17:09:48.642Z,60.40
2018-03-04T17:12:15.735Z,60.80
2018-03-04T17:14:41.944Z,60.70
2018-03-04T17:17:08.272Z,60.00
2018-03-04T17:19:34.460Z,60.10
2018-03-04T17:22:00.942Z,59.30
2018-03-04T17:24:27.236Z,59.50
2018-03-04T17:26:53.551Z,60.60
2018-03-04T17:29:19.864Z,60.30
2018-03-04T17:31:46.505Z,61.20
2018-03-04T17:34:12.999Z,60.80
2018-03-04T17:36:40.015Z,61.70
2018-03-04T17:39:06.339Z,61.60
2018-03-04T17:41:32.572Z,60.60
2018-03-04T17:43:58.785Z,61.20
2018-03-04T17:46:25.006Z,61.50
2018-03-04T17:48:51.217Z,61.30
2018-03-04T17:51:17.537Z,60.60
2018-03-04T17:53:44.456Z,60.90
2018-03-04T17:56:11.559Z,60.90
2018-03-04T17:58:37.836Z,60.80
2018-03-04T18:01:04.875Z,62.00
2018-03-04T18:03:31.958Z,62.20
2018-03-04T18:05:58.160Z,62.10
2018-03-04T18:09:08.870Z,62.90
2018-03-04T18:11:35.224Z,62.90
2018-03-04T18:14:01.470Z,62.30
2018-03-04T18:16:27.796Z,63.00
2018-03-04T18:18:54.051Z,62.20
2018-03-04T18:21:21.613Z,62.30
2018-03-04T18:23:48.587Z,61.40
2018-03-04T18:26:14.830Z,61.40
2018-03-04T18:28:41.175Z,62.90
2018-03-04T18:31:07.364Z,62.90
2018-03-04T18:33:33.742Z,62.40
2018-03-04T18:35:59.961Z,62.40
2018-03-04T18:38:26.247Z,62.10
2018-03-04T18:40:53.202Z,61.90
2018-03-04T18:43:20.205Z,62.00
2018-03-04T18:45:46.741Z,61.90
2018-03-04T18:48:13.027Z,62.10
2018-03-04T18:50:39.259Z,63.60
2018-03-04T18:53:06.018Z,62.70
2018-03-04T18:55:32.257Z,62.70
2018-03-04T18:57:58.702Z,62.50
2018-03-04T19:00:25.112Z,63.30
2018-03-04T19:02:53.204Z,62.70
2018-03-04T19:05:19.659Z,63.10
2018-03-04T19:07:45.871Z,62.50
2018-03-04T19:10:12.180Z,63.40
2018-03-04T19:12:38.429Z,63.20
2018-03-04T19:15:04.735Z,63.10
2018-03-04T19:17:30.942Z,63.80
2018-03-04T19:19:57.960Z,62.60
2018-03-04T19:22:24.280Z,62.50
2018-03-04T19:24:50.496Z,62.70
2018-03-04T19:27:16.736Z,63.60
2018-03-04T19:29:43.075Z,63.10
2018-03-04T19:32:09.411Z,62.80
2018-03-04T19:34:35.946Z,63.20
2018-03-04T19:37:02.258Z,63.20
2018-03-04T19:39:28.569Z,63.20
2018-03-04T19:41:54.866Z,63.20
2018-03-04T19:44:21.298Z,62.90
2018-03-04T19:46:48.248Z,63.70
2018-03-04T19:49:15.275Z,63.80
2018-03-04T19:51:41.779Z,63.70
2018-03-04T19:54:08.107Z,63.50
2018-03-04T19:56:34.413Z,64.00
2018-03-04T19:59:01.633Z,63.20
2018-03-04T20:01:28.652Z,64.30
2018-03-04T20:03:54.860Z,64.30
2018-03-04T20:06:21.091Z,64.40
2018-03-04T20:08:47.377Z,64.40
2018-03-04T20:11:14.328Z,64.20
2018-03-04T20:13:41.996Z,64.00
2018-03-04T20:16:09.052Z,64.30
2018-03-04T20:18:35.315Z,65.00
2018-03-04T20:21:01.580Z,64.00
2018-03-04T20:23:28.548Z,64.40
2018-03-04T20:25:54.805Z,64.30
2018-03-04T20:28:21.058Z,64.50
2018-03-04T20:30:47.449Z,64.50
2018-03-04T20:33:13.716Z,64.80
2018-03-04T20:35:39.960Z,64.80
2018-03-04T20:38:06.176Z,64.60
2018-03-04T20:40:32.409Z,65.60
2018-03-04T20:42:58.636Z,64.90
2018-03-04T20:45:24.829Z,64.80
2018-03-04T20:47:51.048Z,65.00
2018-03-04T20:50:17.339Z,64.80
2018-03-04T20:52:43.559Z,65.10
2018-03-04T20:55:09.905Z,65.10
2018-03-04T20:57:36.197Z,65.30
2018-03-04T21:00:02.450Z,65.10
2018-03-04T21:02:28.696Z,65.40
2018-03-04T21:04:54.892Z,65.60
2018-03-04T21:07:21.098Z,65.60
2018-03-04T21:09:47.406Z,65.50
2018-03-04T21:12:14.396Z,65.60
2018-03-04T21:14:40.601Z,65.60
2018-03-04T21:17:06.992Z,65.60
2018-03-04T21:19:34.035Z,66.00
2018-03-04T21:22:00.618Z,65.90
2018-03-04T21:24:29.523Z,66.10
2018-03-04T21:26:55.868Z,66.10
2018-03-04T21:29:22.068Z,66.40
2018-03-04T21:31:48.314Z,66.40
2018-03-04T21:34:14.519Z,66.60
2018-03-04T21:36:40.706Z,66.40
2018-03-04T21:39:07.028Z,66.60
2018-03-04T21:41:33.393Z,66.70
2018-03-04T21:43:59.661Z,66.70
2018-03-04T21:46:25.942Z,66.70
2018-03-04T21:48:52.221Z,66.90
2018-03-04T21:54:10.414Z,66.70
2018-03-04T21:56:37.160Z,66.80
2018-03-04T21:59:04.437Z,67.10
2018-03-04T22:01:30.694Z,67.10
2018-03-04T22:03:57.112Z,67.10
2018-03-04T22:06:23.470Z,67.10
2018-03-04T22:08:49.653Z,67.30
2018-03-04T22:11:15.945Z,67.30
2018-03-04T22:13:42.162Z,67.90
2018-03-04T22:16:08.457Z,67.20
2018-03-04T22:18:34.738Z,67.50
2018-03-04T22:21:01.284Z,67.40
2018-03-04T22:23:27.529Z,67.90
2018-03-04T22:25:56.358Z,67.90
2018-03-04T22:28:22.666Z,68.10
2018-03-04T22:30:49.720Z,67.90
2018-03-04T22:33:15.984Z,67.90
2018-03-04T22:35:42.373Z,68.40
2018-03-04T22:38:09.359Z,68.40
2018-03-04T22:40:35.592Z,68.20
2018-03-04T22:43:01.828Z,68.20
2018-03-04T22:45:28.050Z,68.50
2018-03-04T22:47:54.511Z,68.10
2018-03-04T22:50:20.766Z,68.50
2018-03-04T22:52:47.716Z,68.40
2018-03-04T22:55:14.700Z,68.30
2018-03-04T22:57:41.883Z,68.20
2018-03-04T23:00:08.163Z,68.60
2018-03-04T23:02:41.323Z,68.80
2018-03-04T23:05:07.892Z,68.50
2018-03-04T23:07:34.140Z,69.30
2018-03-04T23:10:00.718Z,69.50
2018-03-04T23:12:27.656Z,69.10
2018-03-04T23:14:53.924Z,69.10
2018-03-04T23:17:21.061Z,68.90
2018-03-04T23:19:47.536Z,68.90
2018-03-04T23:22:13.776Z,68.80
2018-03-04T23:24:39.962Z,69.60
2018-03-04T23:27:06.904Z,69.20
2018-03-04T23:29:33.126Z,69.20
2018-03-04T23:31:59.351Z,69.40
2018-03-04T23:34:25.530Z,70.00
2018-03-04T23:36:52.525Z,69.20
2018-03-04T23:39:19.501Z,69.60
2018-03-04T23:41:46.459Z,69.30
2018-03-04T23:44:12.751Z,69.20
2018-03-04T23:46:47.505Z,70.40
2018-03-04T23:49:13.701Z,70.30
2018-03-04T23:51:39.998Z,70.10
2018-03-04T23:54:06.196Z,70.00
2018-03-04T23:56:32.480Z,70.80
2018-03-04T23:58:58.682Z,70.80
